sensor_id;sensor_type;location;lat;lon;timestamp;P1;durP1;ratioP1;P2;durP2;ratioP2
70122;SDS011;57489;37.404;24.920;2022-09-09T00:00:33;5.03;;;2.00;;
70122;SDS011;57489;37.404;24.920;2022-09-09T00:05:41;7.13;;;2.00;;
70122;SDS011;57489;37.404;24.920;2022-09-09T00:10:50;4.60;;;1.67;;
70122;SDS011;57489;37.404;24.920;2022-09-09T00:16:04;3.47;;;1.37;;
70122;SDS011;57489;37.404;24.920;2022-09-09T00:21:15;5.50;;;1.60;;
70122;SDS011;57489;37.404;24.920;2022-09-09T00:26:19;4.75;;;1.70;;
70122;SDS011;57489;37.404;24.920;2022-09-09T00:31:28;3.50;;;1.70;;
70122;SDS011;57489;37.404;24.920;2022-09-09T00:36:30;4.57;;;1.60;;
70122;SDS011;57489;37.404;24.920;2022-09-09T00:52:30;3.97;;;1.70;;
70122;SDS011;57489;37.404;24.920;2022-09-09T00:57:39;4.65;;;1.85;;
70122;SDS011;57489;37.404;24.920;2022-09-09T01:08:11;5.38;;;1.60;;
70122;SDS011;57489;37.404;24.920;2022-09-09T01:13:28;4.83;;;1.40;;
70122;SDS011;57489;37.404;24.920;2022-09-09T01:18:33;4.22;;;1.73;;
70122;SDS011;57489;37.404;24.920;2022-09-09T01:28:47;7.90;;;1.97;;
70122;SDS011;57489;37.404;24.920;2022-09-09T01:33:49;5.17;;;2.10;;
70122;SDS011;57489;37.404;24.920;2022-09-09T01:38:50;5.43;;;1.92;;
70122;SDS011;57489;37.404;24.920;2022-09-09T01:43:52;5.15;;;1.75;;
70122;SDS011;57489;37.404;24.920;2022-09-09T01:48:55;4.87;;;1.67;;
70122;SDS011;57489;37.404;24.920;2022-09-09T01:53:57;3.63;;;1.75;;
70122;SDS011;57489;37.404;24.920;2022-09-09T01:59:07;2.83;;;1.37;;
70122;SDS011;57489;37.404;24.920;2022-09-09T02:04:24;4.35;;;1.67;;
70122;SDS011;57489;37.404;24.920;2022-09-09T02:09:28;4.05;;;1.83;;
70122;SDS011;57489;37.404;24.920;2022-09-09T02:14:31;3.50;;;1.30;;
70122;SDS011;57489;37.404;24.920;2022-09-09T02:19:42;3.70;;;1.52;;
70122;SDS011;57489;37.404;24.920;2022-09-09T02:24:49;3.95;;;1.75;;
70122;SDS011;57489;37.404;24.920;2022-09-09T02:29:51;3.50;;;1.90;;
70122;SDS011;57489;37.404;24.920;2022-09-09T02:34:59;5.55;;;1.50;;
70122;SDS011;57489;37.404;24.920;2022-09-09T02:40:04;4.10;;;2.00;;
70122;SDS011;57489;37.404;24.920;2022-09-09T02:45:07;4.70;;;1.63;;
70122;SDS011;57489;37.404;24.920;2022-09-09T02:50:12;6.67;;;1.80;;
70122;SDS011;57489;37.404;24.920;2022-09-09T02:56:02;4.28;;;1.95;;
70122;SDS011;57489;37.404;24.920;2022-09-09T03:00:43;5.15;;;1.80;;
70122;SDS011;57489;37.404;24.920;2022-09-09T03:05:47;4.73;;;1.30;;
70122;SDS011;57489;37.404;24.920;2022-09-09T03:10:47;7.03;;;2.10;;
70122;SDS011;57489;37.404;24.920;2022-09-09T03:15:47;4.50;;;2.10;;
70122;SDS011;57489;37.404;24.920;2022-09-09T03:20:48;4.17;;;1.90;;
70122;SDS011;57489;37.404;24.920;2022-09-09T03:25:49;4.80;;;2.00;;
70122;SDS011;57489;37.404;24.920;2022-09-09T03:30:50;5.25;;;1.83;;
70122;SDS011;57489;37.404;24.920;2022-09-09T03:35:50;3.80;;;1.20;;
70122;SDS011;57489;37.404;24.920;2022-09-09T03:40:51;3.70;;;1.17;;
70122;SDS011;57489;37.404;24.920;2022-09-09T03:45:53;3.27;;;1.63;;
70122;SDS011;57489;37.404;24.920;2022-09-09T03:50:54;4.33;;;1.53;;
70122;SDS011;57489;37.404;24.920;2022-09-09T03:55:55;3.33;;;1.80;;
70122;SDS011;57489;37.404;24.920;2022-09-09T04:00:59;3.60;;;2.00;;
70122;SDS011;57489;37.404;24.920;2022-09-09T04:06:03;5.50;;;1.57;;
70122;SDS011;57489;37.404;24.920;2022-09-09T04:11:04;3.67;;;1.58;;
70122;SDS011;57489;37.404;24.920;2022-09-09T04:16:05;4.07;;;1.85;;
70122;SDS011;57489;37.404;24.920;2022-09-09T04:21:06;4.17;;;1.77;;
70122;SDS011;57489;37.404;24.920;2022-09-09T04:26:09;4.43;;;1.73;;
70122;SDS011;57489;37.404;24.920;2022-09-09T04:31:11;5.70;;;1.60;;
70122;SDS011;57489;37.404;24.920;2022-09-09T04:36:16;4.50;;;1.90;;
70122;SDS011;57489;37.404;24.920;2022-09-09T04:41:17;3.40;;;1.57;;
70122;SDS011;57489;37.404;24.920;2022-09-09T04:46:17;5.90;;;1.77;;
70122;SDS011;57489;37.404;24.920;2022-09-09T04:51:18;4.27;;;2.03;;
70122;SDS011;57489;37.404;24.920;2022-09-09T04:56:19;3.50;;;1.57;;
70122;SDS011;57489;37.404;24.920;2022-09-09T05:01:20;5.57;;;1.58;;
70122;SDS011;57489;37.404;24.920;2022-09-09T05:06:22;4.77;;;1.70;;
70122;SDS011;57489;37.404;24.920;2022-09-09T05:11:23;5.20;;;1.70;;
70122;SDS011;57489;37.404;24.920;2022-09-09T05:16:25;4.57;;;1.30;;
70122;SDS011;57489;37.404;24.920;2022-09-09T05:21:26;4.30;;;1.93;;
70122;SDS011;57489;37.404;24.920;2022-09-09T05:26:26;7.83;;;1.70;;
70122;SDS011;57489;37.404;24.920;2022-09-09T05:31:26;3.37;;;1.40;;
70122;SDS011;57489;37.404;24.920;2022-09-09T05:36:30;3.22;;;1.30;;
70122;SDS011;57489;37.404;24.920;2022-09-09T05:41:30;2.50;;;1.17;;
70122;SDS011;57489;37.404;24.920;2022-09-09T05:46:31;3.47;;;1.23;;
70122;SDS011;57489;37.404;24.920;2022-09-09T05:51:32;3.23;;;1.43;;
70122;SDS011;57489;37.404;24.920;2022-09-09T05:56:32;2.83;;;1.33;;
70122;SDS011;57489;37.404;24.920;2022-09-09T06:01:33;6.63;;;1.40;;
70122;SDS011;57489;37.404;24.920;2022-09-09T06:06:36;5.53;;;1.70;;
70122;SDS011;57489;37.404;24.920;2022-09-09T06:11:38;2.13;;;1.20;;
70122;SDS011;57489;37.404;24.920;2022-09-09T06:16:39;3.67;;;1.30;;
70122;SDS011;57489;37.404;24.920;2022-09-09T06:21:40;3.87;;;1.40;;
70122;SDS011;57489;37.404;24.920;2022-09-09T06:26:40;5.17;;;1.63;;
70122;SDS011;57489;37.404;24.920;2022-09-09T06:31:42;6.93;;;1.73;;
70122;SDS011;57489;37.404;24.920;2022-09-09T06:36:42;3.95;;;1.52;;
70122;SDS011;57489;37.404;24.920;2022-09-09T06:41:43;5.07;;;1.73;;
70122;SDS011;57489;37.404;24.920;2022-09-09T06:46:43;4.20;;;1.60;;
70122;SDS011;57489;37.404;24.920;2022-09-09T06:51:43;5.70;;;1.80;;
70122;SDS011;57489;37.404;24.920;2022-09-09T06:56:44;4.27;;;1.30;;
70122;SDS011;57489;37.404;24.920;2022-09-09T07:01:44;6.07;;;1.93;;
70122;SDS011;57489;37.404;24.920;2022-09-09T07:06:45;4.05;;;1.40;;
70122;SDS011;57489;37.404;24.920;2022-09-09T07:11:48;3.70;;;1.60;;
70122;SDS011;57489;37.404;24.920;2022-09-09T07:16:49;4.40;;;1.48;;
70122;SDS011;57489;37.404;24.920;2022-09-09T07:21:50;4.40;;;1.37;;
70122;SDS011;57489;37.404;24.920;2022-09-09T07:26:50;3.97;;;1.63;;
70122;SDS011;57489;37.404;24.920;2022-09-09T07:31:51;5.53;;;1.70;;
70122;SDS011;57489;37.404;24.920;2022-09-09T07:36:51;18.50;;;4.03;;
70122;SDS011;57489;37.404;24.920;2022-09-09T07:41:51;23.10;;;4.73;;
70122;SDS011;57489;37.404;24.920;2022-09-09T07:46:52;25.50;;;5.50;;
70122;SDS011;57489;37.404;24.920;2022-09-09T07:51:52;16.73;;;4.53;;
70122;SDS011;57489;37.404;24.920;2022-09-09T07:56:53;17.83;;;4.33;;
70122;SDS011;57489;37.404;24.920;2022-09-09T08:01:53;12.63;;;3.53;;
70122;SDS011;57489;37.404;24.920;2022-09-09T08:06:55;9.43;;;2.90;;
70122;SDS011;57489;37.404;24.920;2022-09-09T08:11:57;7.30;;;2.20;;
70122;SDS011;57489;37.404;24.920;2022-09-09T08:16:58;8.60;;;2.33;;
70122;SDS011;57489;37.404;24.920;2022-09-09T08:21:58;5.53;;;1.33;;
70122;SDS011;57489;37.404;24.920;2022-09-09T08:26:59;5.23;;;1.57;;
70122;SDS011;57489;37.404;24.920;2022-09-09T08:32:00;4.43;;;1.63;;
70122;SDS011;57489;37.404;24.920;2022-09-09T08:37:00;5.13;;;1.57;;
70122;SDS011;57489;37.404;24.920;2022-09-09T08:42:17;6.10;;;1.60;;
70122;SDS011;57489;37.404;24.920;2022-09-09T08:47:39;4.85;;;1.77;;
70122;SDS011;57489;37.404;24.920;2022-09-09T08:58:12;6.20;;;1.53;;
70122;SDS011;57489;37.404;24.920;2022-09-09T09:08:43;3.63;;;1.50;;
70122;SDS011;57489;37.404;24.920;2022-09-09T09:14:02;8.77;;;1.97;;
70122;SDS011;57489;37.404;24.920;2022-09-09T09:19:14;8.52;;;1.30;;
70122;SDS011;57489;37.404;24.920;2022-09-09T09:24:18;4.65;;;1.20;;
70122;SDS011;57489;37.404;24.920;2022-09-09T09:29:25;4.37;;;1.97;;
70122;SDS011;57489;37.404;24.920;2022-09-09T09:34:26;4.17;;;1.47;;
70122;SDS011;57489;37.404;24.920;2022-09-09T09:39:28;5.50;;;1.20;;
70122;SDS011;57489;37.404;24.920;2022-09-09T09:44:31;8.57;;;1.55;;
70122;SDS011;57489;37.404;24.920;2022-09-09T09:49:32;4.22;;;1.85;;
70122;SDS011;57489;37.404;24.920;2022-09-09T09:54:33;4.10;;;1.47;;
70122;SDS011;57489;37.404;24.920;2022-09-09T09:59:38;5.07;;;1.60;;
70122;SDS011;57489;37.404;24.920;2022-09-09T10:04:39;4.33;;;1.43;;
70122;SDS011;57489;37.404;24.920;2022-09-09T10:09:40;4.73;;;1.50;;
70122;SDS011;57489;37.404;24.920;2022-09-09T10:30:59;7.45;;;2.20;;
70122;SDS011;57489;37.404;24.920;2022-09-09T10:36:13;5.77;;;2.00;;
70122;SDS011;57489;37.404;24.920;2022-09-09T10:41:32;4.55;;;1.52;;
70122;SDS011;57489;37.404;24.920;2022-09-09T10:58:09;5.78;;;1.73;;
70122;SDS011;57489;37.404;24.920;2022-09-09T11:03:24;4.28;;;1.70;;
70122;SDS011;57489;37.404;24.920;2022-09-09T11:08:28;4.53;;;1.50;;
70122;SDS011;57489;37.404;24.920;2022-09-09T11:13:44;3.57;;;1.40;;
70122;SDS011;57489;37.404;24.920;2022-09-09T11:19:04;3.72;;;1.50;;
70122;SDS011;57489;37.404;24.920;2022-09-09T11:40:22;4.28;;;1.35;;
70122;SDS011;57489;37.404;24.920;2022-09-09T11:45:25;4.23;;;1.60;;
70122;SDS011;57489;37.404;24.920;2022-09-09T11:50:29;6.65;;;1.23;;
70122;SDS011;57489;37.404;24.920;2022-09-09T11:55:32;3.60;;;1.65;;
70122;SDS011;57489;37.404;24.920;2022-09-09T12:00:35;3.87;;;1.63;;
70122;SDS011;57489;37.404;24.920;2022-09-09T12:05:42;6.60;;;1.40;;
70122;SDS011;57489;37.404;24.920;2022-09-09T12:10:53;4.55;;;1.60;;
70122;SDS011;57489;37.404;24.920;2022-09-09T12:15:56;4.43;;;1.30;;
70122;SDS011;57489;37.404;24.920;2022-09-09T12:36:48;3.53;;;1.40;;
70122;SDS011;57489;37.404;24.920;2022-09-09T12:41:55;3.25;;;1.58;;
70122;SDS011;57489;37.404;24.920;2022-09-09T12:46:56;6.10;;;2.10;;
70122;SDS011;57489;37.404;24.920;2022-09-09T12:52:06;6.45;;;2.05;;
70122;SDS011;57489;37.404;24.920;2022-09-09T12:57:11;4.68;;;2.10;;
70122;SDS011;57489;37.404;24.920;2022-09-09T13:02:20;3.77;;;1.50;;
70122;SDS011;57489;37.404;24.920;2022-09-09T13:07:22;5.32;;;2.03;;
70122;SDS011;57489;37.404;24.920;2022-09-09T13:12:23;6.10;;;2.03;;
70122;SDS011;57489;37.404;24.920;2022-09-09T13:17:24;7.30;;;1.95;;
70122;SDS011;57489;37.404;24.920;2022-09-09T13:22:36;4.77;;;2.27;;
70122;SDS011;57489;37.404;24.920;2022-09-09T13:27:39;6.43;;;1.98;;
70122;SDS011;57489;37.404;24.920;2022-09-09T13:33:05;4.65;;;1.98;;
70122;SDS011;57489;37.404;24.920;2022-09-09T13:38:09;5.17;;;2.00;;
70122;SDS011;57489;37.404;24.920;2022-09-09T13:43:13;4.10;;;1.83;;
70122;SDS011;57489;37.404;24.920;2022-09-09T13:48:20;4.60;;;1.70;;
70122;SDS011;57489;37.404;24.920;2022-09-09T13:53:20;4.35;;;1.63;;
70122;SDS011;57489;37.404;24.920;2022-09-09T13:58:21;4.97;;;2.23;;
70122;SDS011;57489;37.404;24.920;2022-09-09T14:03:21;5.03;;;1.60;;
70122;SDS011;57489;37.404;24.920;2022-09-09T14:08:23;4.57;;;2.13;;
70122;SDS011;57489;37.404;24.920;2022-09-09T14:13:25;5.83;;;2.70;;
70122;SDS011;57489;37.404;24.920;2022-09-09T14:18:26;5.23;;;2.13;;
70122;SDS011;57489;37.404;24.920;2022-09-09T14:23:26;4.03;;;1.87;;
70122;SDS011;57489;37.404;24.920;2022-09-09T14:28:27;5.80;;;2.20;;
70122;SDS011;57489;37.404;24.920;2022-09-09T14:33:27;5.23;;;2.20;;
70122;SDS011;57489;37.404;24.920;2022-09-09T14:38:32;5.03;;;2.10;;
70122;SDS011;57489;37.404;24.920;2022-09-09T14:43:34;4.90;;;2.45;;
70122;SDS011;57489;37.404;24.920;2022-09-09T14:48:34;5.20;;;2.10;;
70122;SDS011;57489;37.404;24.920;2022-09-09T14:53:35;3.95;;;1.45;;
70122;SDS011;57489;37.404;24.920;2022-09-09T14:58:36;9.80;;;2.97;;
70122;SDS011;57489;37.404;24.920;2022-09-09T15:03:37;8.68;;;2.25;;
70122;SDS011;57489;37.404;24.920;2022-09-09T15:08:40;5.50;;;2.03;;
70122;SDS011;57489;37.404;24.920;2022-09-09T15:13:42;4.93;;;1.80;;
70122;SDS011;57489;37.404;24.920;2022-09-09T15:18:44;4.15;;;2.00;;
70122;SDS011;57489;37.404;24.920;2022-09-09T15:23:45;5.47;;;2.17;;
70122;SDS011;57489;37.404;24.920;2022-09-09T15:28:46;4.60;;;1.80;;
70122;SDS011;57489;37.404;24.920;2022-09-09T15:33:51;4.97;;;1.80;;
70122;SDS011;57489;37.404;24.920;2022-09-09T15:38:52;3.63;;;1.83;;
70122;SDS011;57489;37.404;24.920;2022-09-09T15:43:54;5.10;;;2.33;;
70122;SDS011;57489;37.404;24.920;2022-09-09T15:48:56;5.75;;;2.05;;
70122;SDS011;57489;37.404;24.920;2022-09-09T15:54:06;5.40;;;2.33;;
70122;SDS011;57489;37.404;24.920;2022-09-09T15:59:07;8.32;;;2.17;;
70122;SDS011;57489;37.404;24.920;2022-09-09T16:04:08;5.47;;;2.00;;
70122;SDS011;57489;37.404;24.920;2022-09-09T16:09:08;15.52;;;3.25;;
70122;SDS011;57489;37.404;24.920;2022-09-09T16:14:09;11.83;;;2.57;;
70122;SDS011;57489;37.404;24.920;2022-09-09T16:19:10;10.03;;;3.20;;
70122;SDS011;57489;37.404;24.920;2022-09-09T16:24:13;8.73;;;2.90;;
70122;SDS011;57489;37.404;24.920;2022-09-09T16:29:17;7.57;;;2.30;;
70122;SDS011;57489;37.404;24.920;2022-09-09T16:34:19;8.15;;;2.55;;
70122;SDS011;57489;37.404;24.920;2022-09-09T16:39:20;5.93;;;2.72;;
70122;SDS011;57489;37.404;24.920;2022-09-09T16:44:20;6.83;;;2.30;;
70122;SDS011;57489;37.404;24.920;2022-09-09T16:49:21;3.67;;;1.83;;
70122;SDS011;57489;37.404;24.920;2022-09-09T16:54:21;4.53;;;1.90;;
70122;SDS011;57489;37.404;24.920;2022-09-09T16:59:22;4.85;;;2.20;;
70122;SDS011;57489;37.404;24.920;2022-09-09T17:04:24;4.57;;;1.77;;
70122;SDS011;57489;37.404;24.920;2022-09-09T17:09:26;5.17;;;2.10;;
70122;SDS011;57489;37.404;24.920;2022-09-09T17:14:27;3.90;;;2.20;;
70122;SDS011;57489;37.404;24.920;2022-09-09T17:19:27;4.77;;;2.10;;
70122;SDS011;57489;37.404;24.920;2022-09-09T17:24:28;6.53;;;1.93;;
70122;SDS011;57489;37.404;24.920;2022-09-09T17:29:28;5.23;;;2.07;;
70122;SDS011;57489;37.404;24.920;2022-09-09T17:34:29;5.60;;;2.08;;
70122;SDS011;57489;37.404;24.920;2022-09-09T17:39:29;5.60;;;2.17;;
70122;SDS011;57489;37.404;24.920;2022-09-09T17:44:30;4.40;;;2.17;;
70122;SDS011;57489;37.404;24.920;2022-09-09T17:49:30;4.57;;;1.67;;
70122;SDS011;57489;37.404;24.920;2022-09-09T17:54:31;4.27;;;2.03;;
70122;SDS011;57489;37.404;24.920;2022-09-09T17:59:31;5.00;;;2.53;;
70122;SDS011;57489;37.404;24.920;2022-09-09T18:04:32;4.73;;;1.80;;
70122;SDS011;57489;37.404;24.920;2022-09-09T18:09:33;5.90;;;2.40;;
70122;SDS011;57489;37.404;24.920;2022-09-09T18:14:34;4.67;;;2.30;;
70122;SDS011;57489;37.404;24.920;2022-09-09T18:19:34;4.43;;;2.10;;
70122;SDS011;57489;37.404;24.920;2022-09-09T18:24:35;4.67;;;2.17;;
70122;SDS011;57489;37.404;24.920;2022-09-09T18:29:35;8.63;;;2.93;;
70122;SDS011;57489;37.404;24.920;2022-09-09T18:34:35;8.50;;;2.70;;
70122;SDS011;57489;37.404;24.920;2022-09-09T18:39:36;4.47;;;1.80;;
70122;SDS011;57489;37.404;24.920;2022-09-09T18:44:36;5.07;;;2.27;;
70122;SDS011;57489;37.404;24.920;2022-09-09T18:49:37;5.60;;;2.03;;
70122;SDS011;57489;37.404;24.920;2022-09-09T18:54:37;7.03;;;2.43;;
70122;SDS011;57489;37.404;24.920;2022-09-09T18:59:38;4.60;;;2.33;;
70122;SDS011;57489;37.404;24.920;2022-09-09T19:04:38;9.37;;;2.97;;
70122;SDS011;57489;37.404;24.920;2022-09-09T19:09:39;5.70;;;2.00;;
70122;SDS011;57489;37.404;24.920;2022-09-09T19:14:39;5.13;;;2.43;;
70122;SDS011;57489;37.404;24.920;2022-09-09T19:19:40;7.43;;;2.80;;
70122;SDS011;57489;37.404;24.920;2022-09-09T19:24:40;4.03;;;1.87;;
70122;SDS011;57489;37.404;24.920;2022-09-09T19:29:41;4.55;;;2.08;;
70122;SDS011;57489;37.404;24.920;2022-09-09T19:34:41;5.03;;;2.30;;
70122;SDS011;57489;37.404;24.920;2022-09-09T19:39:42;7.50;;;2.13;;
70122;SDS011;57489;37.404;24.920;2022-09-09T19:44:42;5.90;;;2.10;;
70122;SDS011;57489;37.404;24.920;2022-09-09T19:49:43;4.23;;;2.13;;
70122;SDS011;57489;37.404;24.920;2022-09-09T19:54:44;4.80;;;1.92;;
70122;SDS011;57489;37.404;24.920;2022-09-09T19:59:45;4.97;;;1.88;;
70122;SDS011;57489;37.404;24.920;2022-09-09T20:04:45;5.53;;;2.40;;
70122;SDS011;57489;37.404;24.920;2022-09-09T20:09:46;7.13;;;2.43;;
70122;SDS011;57489;37.404;24.920;2022-09-09T20:14:46;4.50;;;1.80;;
70122;SDS011;57489;37.404;24.920;2022-09-09T20:19:47;4.50;;;2.17;;
70122;SDS011;57489;37.404;24.920;2022-09-09T20:24:47;5.27;;;2.17;;
70122;SDS011;57489;37.404;24.920;2022-09-09T20:29:47;6.03;;;2.23;;
70122;SDS011;57489;37.404;24.920;2022-09-09T20:34:48;5.13;;;2.10;;
70122;SDS011;57489;37.404;24.920;2022-09-09T20:39:48;5.37;;;2.20;;
70122;SDS011;57489;37.404;24.920;2022-09-09T20:44:49;4.07;;;1.88;;
70122;SDS011;57489;37.404;24.920;2022-09-09T20:49:49;4.97;;;2.40;;
70122;SDS011;57489;37.404;24.920;2022-09-09T20:54:50;5.17;;;1.63;;
70122;SDS011;57489;37.404;24.920;2022-09-09T20:59:50;4.77;;;1.87;;
70122;SDS011;57489;37.404;24.920;2022-09-09T21:04:51;3.93;;;1.80;;
70122;SDS011;57489;37.404;24.920;2022-09-09T21:09:51;7.70;;;2.13;;
70122;SDS011;57489;37.404;24.920;2022-09-09T21:14:51;4.60;;;2.27;;
70122;SDS011;57489;37.404;24.920;2022-09-09T21:19:52;5.20;;;1.80;;
70122;SDS011;57489;37.404;24.920;2022-09-09T21:24:52;5.23;;;2.20;;
70122;SDS011;57489;37.404;24.920;2022-09-09T21:29:53;6.10;;;2.27;;
70122;SDS011;57489;37.404;24.920;2022-09-09T21:34:53;4.43;;;2.40;;
70122;SDS011;57489;37.404;24.920;2022-09-09T21:39:54;6.07;;;2.33;;
70122;SDS011;57489;37.404;24.920;2022-09-09T21:44:54;8.63;;;2.40;;
70122;SDS011;57489;37.404;24.920;2022-09-09T21:49:55;5.37;;;2.70;;
70122;SDS011;57489;37.404;24.920;2022-09-09T21:54:55;6.77;;;2.77;;
70122;SDS011;57489;37.404;24.920;2022-09-09T21:59:56;5.10;;;2.40;;
70122;SDS011;57489;37.404;24.920;2022-09-09T22:04:56;5.47;;;2.60;;
70122;SDS011;57489;37.404;24.920;2022-09-09T22:09:57;5.30;;;3.10;;
70122;SDS011;57489;37.404;24.920;2022-09-09T22:14:57;6.57;;;3.00;;
70122;SDS011;57489;37.404;24.920;2022-09-09T22:19:58;8.37;;;2.97;;
70122;SDS011;57489;37.404;24.920;2022-09-09T22:24:59;7.13;;;3.22;;
70122;SDS011;57489;37.404;24.920;2022-09-09T22:29:59;6.47;;;3.30;;
70122;SDS011;57489;37.404;24.920;2022-09-09T22:35:00;6.37;;;3.07;;
70122;SDS011;57489;37.404;24.920;2022-09-09T22:40:00;5.47;;;2.47;;
70122;SDS011;57489;37.404;24.920;2022-09-09T22:45:01;5.50;;;2.80;;
70122;SDS011;57489;37.404;24.920;2022-09-09T22:50:02;5.17;;;2.57;;
70122;SDS011;57489;37.404;24.920;2022-09-09T22:55:03;5.80;;;2.70;;
70122;SDS011;57489;37.404;24.920;2022-09-09T23:00:04;6.45;;;2.80;;
70122;SDS011;57489;37.404;24.920;2022-09-09T23:05:05;5.87;;;2.67;;
70122;SDS011;57489;37.404;24.920;2022-09-09T23:10:05;6.93;;;3.08;;
70122;SDS011;57489;37.404;24.920;2022-09-09T23:15:07;6.73;;;2.47;;
70122;SDS011;57489;37.404;24.920;2022-09-09T23:20:08;5.88;;;2.50;;
70122;SDS011;57489;37.404;24.920;2022-09-09T23:25:09;6.13;;;2.50;;
70122;SDS011;57489;37.404;24.920;2022-09-09T23:30:09;6.57;;;2.80;;
70122;SDS011;57489;37.404;24.920;2022-09-09T23:35:10;6.20;;;2.57;;
70122;SDS011;57489;37.404;24.920;2022-09-09T23:40:10;6.23;;;2.87;;
70122;SDS011;57489;37.404;24.920;2022-09-09T23:45:11;5.13;;;2.60;;
70122;SDS011;57489;37.404;24.920;2022-09-09T23:50:11;7.23;;;2.73;;
70122;SDS011;57489;37.404;24.920;2022-09-09T23:55:12;7.18;;;3.65;;
